createdAt,value
2023-06-11T00:00:16.881Z,99501.75
2023-06-11T00:06:21.618Z,99504.56
2023-06-11T00:12:23.819Z,99514.19
2023-06-11T00:18:26.350Z,99519.06
2023-06-11T00:24:28.371Z,99515.81
2023-06-11T00:30:31.095Z,99509.84
2023-06-11T00:36:34.325Z,99511.34
2023-06-11T00:42:37.544Z,99516.06
2023-06-11T00:48:39.837Z,99518.84
2023-06-11T00:54:43.277Z,99520.19
2023-06-11T01:00:55.704Z,99504.56
2023-06-11T01:07:01.004Z,99514.25
2023-06-11T01:13:02.964Z,99512.03
2023-06-11T01:19:38.584Z,99518.28
2023-06-11T01:25:45.391Z,99520.56
2023-06-11T01:31:47.636Z,99528.63
2023-06-11T01:37:56.639Z,99534.72
2023-06-11T01:43:58.689Z,99534.22
2023-06-11T01:50:00.738Z,99535.09
2023-06-11T01:56:03.432Z,99536.47
2023-06-11T02:02:05.602Z,99527.97
2023-06-11T02:08:07.618Z,99524.91
2023-06-11T02:14:09.608Z,99529.72
2023-06-11T02:20:13.243Z,99521.81
2023-06-11T02:26:15.256Z,99525.34
2023-06-11T02:32:17.261Z,99523.84
2023-06-11T02:38:19.211Z,99522.72
2023-06-11T02:44:22.667Z,99531.66
2023-06-11T02:50:24.695Z,99527.22
2023-06-11T02:56:27.614Z,99533.22
2023-06-11T03:02:29.616Z,99526.78
2023-06-11T03:08:31.619Z,99537.97
2023-06-11T03:14:33.595Z,99539.22
2023-06-11T03:20:35.567Z,99544.53
2023-06-11T03:26:37.544Z,99549.56
2023-06-11T03:32:41.142Z,99555.84
2023-06-11T03:38:43.164Z,99556.28
2023-06-11T03:44:45.130Z,99549.22
2023-06-11T03:50:47.137Z,99560.81
2023-06-11T03:56:49.249Z,99564.19
2023-06-11T04:02:51.504Z,99571.78
2023-06-11T04:08:53.684Z,99574.13
2023-06-11T04:14:55.911Z,99571.00
2023-06-11T04:20:58.038Z,99570.41
2023-06-11T04:27:00.896Z,99572.94
2023-06-11T04:33:05.670Z,99572.59
2023-06-11T04:39:09.073Z,99569.94
2023-06-11T04:45:12.483Z,99564.19
2023-06-11T04:51:17.781Z,99566.59
2023-06-11T04:57:19.761Z,99563.31
2023-06-11T05:03:23.038Z,99567.19
2023-06-11T05:09:25.456Z,99567.44
2023-06-11T05:15:27.636Z,99562.47
2023-06-11T05:21:29.691Z,99556.16
2023-06-11T05:27:32.921Z,99561.63
2023-06-11T05:33:34.912Z,99559.06
2023-06-11T05:39:36.925Z,99566.59
2023-06-11T05:45:50.958Z,99579.44
2023-06-11T05:51:53.559Z,99580.25
2023-06-11T05:57:55.795Z,99574.56
2023-06-11T06:03:57.879Z,99583.72
2023-06-11T06:09:59.980Z,99591.31
2023-06-11T06:16:01.988Z,99597.22
2023-06-11T06:22:05.277Z,99597.25
2023-06-11T06:28:07.258Z,99600.84
2023-06-11T06:34:09.836Z,99605.09
2023-06-11T06:40:13.487Z,99600.59
2023-06-11T06:46:15.613Z,99609.66
2023-06-11T06:52:17.580Z,99607.25
2023-06-11T06:58:19.602Z,99604.97
2023-06-11T07:04:21.581Z,99603.63
2023-06-11T07:10:23.626Z,99612.84
2023-06-11T07:16:25.685Z,99615.59
2023-06-11T07:22:27.733Z,99613.44
2023-06-11T07:28:29.684Z,99619.63
2023-06-11T07:34:31.722Z,99622.50
2023-06-11T07:40:33.694Z,99625.84
2023-06-11T07:46:35.734Z,99625.78
2023-06-11T07:52:37.895Z,99623.88
2023-06-11T07:58:39.828Z,99610.78
2023-06-11T08:04:42.257Z,99606.47
2023-06-11T08:10:46.820Z,99604.41
2023-06-11T08:16:49.127Z,99606.28
2023-06-11T08:22:51.254Z,99601.59
2023-06-11T08:28:53.547Z,99602.34
2023-06-11T08:34:55.888Z,99604.09
2023-06-11T08:40:58.286Z,99597.59
2023-06-11T08:47:04.022Z,99599.34
2023-06-11T08:53:07.736Z,99590.06
2023-06-11T08:59:09.991Z,99588.28
2023-06-11T09:05:12.779Z,99575.34
2023-06-11T09:11:17.085Z,99576.97
2023-06-11T09:17:19.119Z,99574.34
2023-06-11T09:23:32.104Z,99574.38
2023-06-11T09:29:35.889Z,99562.00
2023-06-11T09:35:45.342Z,99570.78
2023-06-11T09:41:52.042Z,99572.75
2023-06-11T09:47:54.252Z,99571.44
2023-06-11T09:53:57.129Z,99574.50
2023-06-11T10:00:00.781Z,99579.69
2023-06-11T10:06:08.530Z,99580.50
2023-06-11T10:12:12.792Z,99579.34
2023-06-11T10:18:16.644Z,99585.44
2023-06-11T10:24:29.156Z,99571.72
2023-06-11T10:30:32.674Z,99567.56
2023-06-11T10:36:37.200Z,99573.13
2023-06-11T10:42:41.880Z,99576.25
2023-06-11T10:48:55.527Z,99571.59
2023-06-11T10:54:58.713Z,99559.94
2023-06-11T11:01:01.225Z,99571.94
2023-06-11T11:07:12.402Z,99560.34
2023-06-11T11:13:14.465Z,99540.59
2023-06-11T11:19:17.020Z,99547.22
2023-06-11T11:25:26.680Z,99552.91
2023-06-11T11:31:28.737Z,99541.13
2023-06-11T11:37:31.236Z,99548.88
2023-06-11T11:43:42.780Z,99541.09
2023-06-11T11:49:54.464Z,99543.31
2023-06-11T11:56:05.977Z,99535.22
2023-06-11T12:02:10.453Z,99546.88
2023-06-11T12:08:12.414Z,99548.59
2023-06-11T12:14:14.359Z,99531.00
2023-06-11T12:20:16.350Z,99538.38
2023-06-11T12:26:19.000Z,99527.78
2023-06-11T12:32:26.369Z,99525.91
2023-06-11T12:38:29.327Z,99525.41
2023-06-11T12:44:32.307Z,99539.28
2023-06-11T12:50:34.282Z,99530.50
2023-06-11T12:56:36.235Z,99520.97
2023-06-11T13:02:39.867Z,99522.44
2023-06-11T13:08:41.900Z,99521.78
2023-06-11T13:14:44.573Z,99527.03
2023-06-11T13:20:47.182Z,99521.81
2023-06-11T13:26:49.348Z,99514.03
2023-06-11T13:32:52.336Z,99512.25
2023-06-11T13:38:54.365Z,99522.69
2023-06-11T13:44:56.669Z,99515.03
2023-06-11T13:50:58.890Z,99509.50
2023-06-11T13:57:01.942Z,99520.41
2023-06-11T14:03:04.963Z,99505.38
2023-06-11T14:09:07.226Z,99515.00
2023-06-11T14:15:09.905Z,99515.44
2023-06-11T14:21:11.837Z,99513.16
2023-06-11T14:27:14.345Z,99500.22
2023-06-11T14:33:16.335Z,99518.63
2023-06-11T14:39:19.602Z,99514.44
2023-06-11T14:45:21.555Z,99492.81
2023-06-11T14:51:24.142Z,99490.94
2023-06-11T14:57:26.722Z,99464.94
2023-06-11T15:03:28.742Z,99490.28
2023-06-11T15:09:31.080Z,99480.13
2023-06-11T15:15:33.032Z,99474.31
2023-06-11T15:21:34.972Z,99471.63
2023-06-11T15:27:36.963Z,99474.16
2023-06-11T15:33:39.198Z,99466.56
2023-06-11T15:39:41.254Z,99463.47
2023-06-11T15:45:43.266Z,99449.56
2023-06-11T15:51:47.705Z,99447.66
2023-06-11T15:57:51.448Z,99440.66
2023-06-11T16:03:53.950Z,99429.63
2023-06-11T16:09:55.997Z,99433.50
2023-06-11T16:15:58.050Z,99432.97
2023-06-11T16:22:00.173Z,99433.84
2023-06-11T16:28:02.234Z,99434.28
2023-06-11T16:34:04.216Z,99434.81
2023-06-11T16:40:07.627Z,99433.41
2023-06-11T16:46:09.637Z,99423.03
2023-06-11T16:52:11.653Z,99434.22
2023-06-11T16:58:13.593Z,99436.91
2023-06-11T17:04:15.773Z,99439.88
2023-06-11T17:10:17.854Z,99441.81
2023-06-11T17:16:20.430Z,99438.78
2023-06-11T17:22:24.229Z,99447.63
2023-06-11T17:28:26.297Z,99447.56
2023-06-11T17:34:28.291Z,99437.50
2023-06-11T17:40:30.319Z,99441.38
2023-06-11T17:46:32.677Z,99434.72
2023-06-11T17:52:34.935Z,99432.66
2023-06-11T17:58:40.780Z,99443.66
2023-06-11T18:04:42.889Z,99435.09
2023-06-11T18:10:44.947Z,99429.34
2023-06-11T18:16:47.078Z,99421.16
2023-06-11T18:22:49.214Z,99429.38
2023-06-11T18:28:51.171Z,99438.38
2023-06-11T18:34:53.099Z,99435.44
2023-06-11T18:40:55.276Z,99435.97
2023-06-11T18:47:01.936Z,99428.03
2023-06-11T18:53:03.920Z,99430.88
2023-06-11T18:59:05.926Z,99416.25
2023-06-11T19:05:08.896Z,99416.06
2023-06-11T19:11:10.925Z,99419.44
2023-06-11T19:17:13.146Z,99420.41
2023-06-11T19:23:21.689Z,99413.72
2023-06-11T19:29:23.668Z,99416.28
2023-06-11T19:35:26.105Z,99413.34
2023-06-11T19:41:30.300Z,99417.16
2023-06-11T19:47:33.709Z,99416.75
2023-06-11T19:53:35.695Z,99409.59
2023-06-11T19:59:40.820Z,99414.47
2023-06-11T20:05:43.161Z,99427.78
2023-06-11T20:11:53.729Z,99429.84
2023-06-11T20:18:05.285Z,99426.22
2023-06-11T20:24:08.206Z,99424.75
2023-06-11T20:30:13.950Z,99439.06
2023-06-11T20:36:17.664Z,99437.19
2023-06-11T20:42:19.678Z,99442.81
2023-06-11T20:48:22.112Z,99452.16
2023-06-11T20:54:24.099Z,99448.69
2023-06-11T21:00:26.188Z,99451.81
2023-06-11T21:06:28.110Z,99450.47
2023-06-11T21:12:30.016Z,99439.91
2023-06-11T21:18:32.043Z,99443.97
2023-06-11T21:24:34.049Z,99448.72
2023-06-11T21:30:37.987Z,99450.78
2023-06-11T21:36:39.947Z,99446.75
2023-06-11T21:42:41.893Z,99452.69
2023-06-11T21:48:46.020Z,99453.47
2023-06-11T21:54:48.565Z,99452.09
2023-06-11T22:00:50.518Z,99457.63
2023-06-11T22:06:53.758Z,99462.81
2023-06-11T22:13:09.550Z,99465.66
2023-06-11T22:19:11.679Z,99468.97
2023-06-11T22:25:14.516Z,99465.28
2023-06-11T22:31:18.955Z,99464.16
2023-06-11T22:37:20.989Z,99474.25
2023-06-11T22:43:22.972Z,99463.72
2023-06-11T22:49:29.394Z,99472.25
2023-06-11T22:55:31.501Z,99475.00
2023-06-11T23:01:33.910Z,99464.47
2023-06-11T23:07:36.554Z,99472.06
2023-06-11T23:13:38.496Z,99456.06
2023-06-11T23:19:42.402Z,99454.09
2023-06-11T23:25:45.584Z,99445.53
2023-06-11T23:31:47.693Z,99461.28
2023-06-11T23:37:52.543Z,99452.69
2023-06-11T23:43:56.346Z,99456.59
2023-06-11T23:49:59.318Z,99455.41
2023-06-11T23:56:02.922Z,99449.59
